createdAt,value
2024-04-02T00:02:06.532Z,10.51
2024-04-02T00:04:37.063Z,10.48
2024-04-02T00:07:08.491Z,10.45
2024-04-02T00:09:39.454Z,10.42
2024-04-02T00:12:10.985Z,10.39
2024-04-02T00:14:41.831Z,10.36
2024-04-02T00:17:13.582Z,10.32
2024-04-02T00:19:44.105Z,10.30
2024-04-02T00:22:15.554Z,10.28
2024-04-02T00:24:46.094Z,10.24
2024-04-02T00:27:17.643Z,10.20
2024-04-02T00:29:48.171Z,10.15
2024-04-02T00:32:19.852Z,10.11
2024-04-02T00:34:50.349Z,10.08
2024-04-02T00:37:22.005Z,10.07
2024-04-02T00:39:52.539Z,10.04
2024-04-02T00:42:24.005Z,10.01
2024-04-02T00:44:54.518Z,9.97
2024-04-02T00:47:26.516Z,9.96
2024-04-02T00:49:57.107Z,9.99
2024-04-02T00:52:29.187Z,10.03
2024-04-02T00:55:00.120Z,10.05
2024-04-02T00:57:34.666Z,10.05
2024-04-02T01:00:08.113Z,10.03
2024-04-02T01:02:38.759Z,10.02
2024-04-02T01:05:10.646Z,10.01
2024-04-02T01:07:42.022Z,10.02
2024-04-02T01:10:13.627Z,10.02
2024-04-02T01:12:44.054Z,10.02
2024-04-02T01:15:21.233Z,10.01
2024-04-02T01:17:53.045Z,10.00
2024-04-02T01:20:23.531Z,10.00
2024-04-02T01:22:55.476Z,10.00
2024-04-02T01:25:25.814Z,9.99
2024-04-02T01:27:57.768Z,9.97
2024-04-02T01:30:28.113Z,9.92
2024-04-02T01:33:00.105Z,9.89
2024-04-02T01:35:30.596Z,9.88
2024-04-02T01:38:02.450Z,9.88
2024-04-02T01:40:32.884Z,9.91
2024-04-02T01:43:05.353Z,9.92
2024-04-02T01:45:35.682Z,9.92
2024-04-02T01:48:07.949Z,9.91
2024-04-02T01:50:38.165Z,9.92
2024-04-02T01:53:10.383Z,9.89
2024-04-02T01:55:40.768Z,9.87
2024-04-02T01:58:12.924Z,9.85
2024-04-02T02:00:43.565Z,9.84
2024-04-02T02:03:15.620Z,9.83
2024-04-02T02:05:49.126Z,9.84
2024-04-02T02:08:20.876Z,9.85
2024-04-02T02:10:53.147Z,9.84
2024-04-02T02:13:25.110Z,9.83
2024-04-02T02:16:04.128Z,9.82
2024-04-02T02:18:36.001Z,9.80
2024-04-02T02:21:06.320Z,9.76
2024-04-02T02:23:40.948Z,9.70
2024-04-02T02:26:13.725Z,9.63
2024-04-02T02:28:44.229Z,9.57
2024-04-02T02:31:16.725Z,9.50
2024-04-02T02:33:50.124Z,9.45
2024-04-02T02:36:22.096Z,9.41
2024-04-02T02:38:53.129Z,9.38
2024-04-02T02:41:24.988Z,9.36
2024-04-02T02:43:57.981Z,9.34
2024-04-02T02:46:29.826Z,9.33
2024-04-02T02:49:00.975Z,9.30
2024-04-02T02:51:32.737Z,9.27
2024-04-02T02:54:04.625Z,9.21
2024-04-02T02:56:37.069Z,9.17
2024-04-02T02:59:08.283Z,9.12
2024-04-02T03:01:39.861Z,9.07
2024-04-02T03:04:10.806Z,9.00
2024-04-02T03:06:42.463Z,8.90
2024-04-02T03:09:12.687Z,8.83
2024-04-02T03:11:44.541Z,8.76
2024-04-02T03:14:15.103Z,8.70
2024-04-02T03:16:46.731Z,8.65
2024-04-02T03:19:17.151Z,8.60
2024-04-02T03:21:49.217Z,8.55
2024-04-02T03:24:19.646Z,8.51
2024-04-02T03:26:51.303Z,8.46
2024-04-02T03:29:22.129Z,8.41
2024-04-02T03:31:53.693Z,8.38
2024-04-02T03:34:27.153Z,8.36
2024-04-02T03:36:58.739Z,8.35
2024-04-02T03:39:29.722Z,8.36
2024-04-02T03:42:01.645Z,8.36
2024-04-02T03:44:32.284Z,8.35
2024-04-02T03:47:03.826Z,8.34
2024-04-02T03:49:34.357Z,8.34
2024-04-02T03:52:06.478Z,8.34
2024-04-02T03:54:36.949Z,8.34
2024-04-02T03:57:08.506Z,8.34
2024-04-02T03:59:39.122Z,8.33
2024-04-02T04:02:10.712Z,8.33
2024-04-02T04:04:42.230Z,8.33
2024-04-02T04:07:13.688Z,8.32
2024-04-02T04:09:44.214Z,8.32
2024-04-02T04:12:16.172Z,8.33
2024-04-02T04:14:49.989Z,8.35
2024-04-02T04:17:21.835Z,8.37
2024-04-02T04:19:52.675Z,8.36
2024-04-02T04:22:24.330Z,8.34
2024-04-02T04:25:03.135Z,8.34
2024-04-02T04:27:38.188Z,8.34
2024-04-02T04:30:10.863Z,8.34
2024-04-02T04:32:41.620Z,8.33
2024-04-02T04:35:13.268Z,8.31
2024-04-02T04:37:43.884Z,8.29
2024-04-02T04:40:15.541Z,8.27
2024-04-02T04:42:45.971Z,8.25
2024-04-02T04:45:17.624Z,8.23
2024-04-02T04:47:48.375Z,8.20
2024-04-02T04:50:20.064Z,8.19
2024-04-02T04:52:52.396Z,8.19
2024-04-02T04:55:23.937Z,8.19
2024-04-02T04:57:56.237Z,8.20
2024-04-02T05:00:28.074Z,8.19
2024-04-02T05:02:58.502Z,8.17
2024-04-02T05:05:30.152Z,8.16
2024-04-02T05:08:19.541Z,8.16
2024-04-02T05:10:51.787Z,8.15
2024-04-02T05:13:22.636Z,8.13
2024-04-02T05:15:54.490Z,8.11
2024-04-02T05:18:24.914Z,8.09
2024-04-02T05:20:56.675Z,8.09
2024-04-02T05:23:30.465Z,8.08
2024-04-02T05:26:02.330Z,8.06
2024-04-02T05:28:33.071Z,8.05
2024-04-02T05:31:05.351Z,8.05
2024-04-02T05:33:35.860Z,8.06
2024-04-02T05:36:08.082Z,8.07
2024-04-02T05:38:39.222Z,8.07
2024-04-02T05:41:11.552Z,8.07
2024-04-02T05:43:41.972Z,8.09
2024-04-02T05:46:13.635Z,8.12
2024-04-02T05:48:47.427Z,8.15
2024-04-02T05:51:19.307Z,8.17
2024-04-02T05:53:49.934Z,8.18
2024-04-02T05:56:21.803Z,8.19
2024-04-02T05:58:52.430Z,8.21
2024-04-02T06:01:26.930Z,8.23
2024-04-02T06:03:59.519Z,8.25
2024-04-02T06:06:30.987Z,8.25
2024-04-02T06:09:02.727Z,8.27
2024-04-02T06:11:33.168Z,8.30
2024-04-02T06:14:05.011Z,8.36
2024-04-02T06:16:35.397Z,8.39
2024-04-02T06:19:08.107Z,8.43
2024-04-02T06:21:38.337Z,8.45
2024-04-02T06:24:10.397Z,8.47
2024-04-02T06:26:40.620Z,8.49
2024-04-02T06:29:12.485Z,8.48
2024-04-02T06:31:42.703Z,8.47
2024-04-02T06:34:15.275Z,8.47
2024-04-02T06:36:45.532Z,8.46
2024-04-02T06:39:17.577Z,8.47
2024-04-02T06:41:48.409Z,8.48
2024-04-02T06:44:20.499Z,8.50
2024-04-02T06:46:50.929Z,8.52
2024-04-02T06:49:23.272Z,8.56
2024-04-02T06:51:53.800Z,8.62
2024-04-02T06:54:25.521Z,8.70
2024-04-02T06:56:57.516Z,8.73
2024-04-02T06:59:29.472Z,8.78
2024-04-02T07:02:00.003Z,8.81
2024-04-02T07:04:33.133Z,8.85
2024-04-02T07:07:04.759Z,8.89
2024-04-02T07:09:36.913Z,8.97
2024-04-02T07:12:08.222Z,9.05
2024-04-02T07:14:40.226Z,9.11
2024-04-02T07:17:10.658Z,9.18
2024-04-02T07:19:42.405Z,9.27
2024-04-02T07:22:12.731Z,9.36
2024-04-02T07:24:44.586Z,9.46
2024-04-02T07:27:15.125Z,9.55
2024-04-02T07:29:47.185Z,9.65
2024-04-02T07:32:17.851Z,9.76
2024-04-02T07:34:49.789Z,9.82
2024-04-02T07:37:20.312Z,9.84
2024-04-02T07:39:55.474Z,9.88
2024-04-02T07:42:27.819Z,9.92
2024-04-02T07:44:58.148Z,9.95
2024-04-02T07:47:30.118Z,9.98
2024-04-02T07:50:00.443Z,9.95
2024-04-02T07:52:32.386Z,9.92
2024-04-02T07:55:02.821Z,9.92
2024-04-02T07:57:34.679Z,9.92
2024-04-02T08:00:06.454Z,9.94
2024-04-02T08:02:39.685Z,9.97
2024-04-02T08:05:10.551Z,10.03
2024-04-02T08:07:43.341Z,10.08
2024-04-02T08:10:14.381Z,10.13
2024-04-02T08:12:46.037Z,10.17
2024-04-02T08:15:16.260Z,10.18
2024-04-02T08:17:48.647Z,10.22
2024-04-02T08:20:19.098Z,10.25
2024-04-02T08:22:50.833Z,10.29
2024-04-02T08:25:21.240Z,10.37
2024-04-02T08:27:53.000Z,10.47
2024-04-02T08:30:23.631Z,10.56
2024-04-02T08:32:55.396Z,10.66
2024-04-02T08:35:25.954Z,10.74
2024-04-02T08:37:57.987Z,10.82
2024-04-02T08:40:32.387Z,10.90
2024-04-02T08:43:06.719Z,10.97
2024-04-02T08:45:41.659Z,10.99
2024-04-02T08:48:12.799Z,11.04
2024-04-02T08:50:44.574Z,11.11
2024-04-02T08:53:15.392Z,11.21
2024-04-02T08:55:47.765Z,11.25
2024-04-02T08:58:18.019Z,11.22
2024-04-02T09:00:50.052Z,11.12
2024-04-02T09:03:20.589Z,11.01
2024-04-02T09:05:52.541Z,10.91
2024-04-02T09:08:23.164Z,10.85
2024-04-02T09:10:55.180Z,10.85
2024-04-02T09:13:26.332Z,10.87
2024-04-02T09:15:58.346Z,10.85
2024-04-02T09:18:36.242Z,10.80
2024-04-02T09:21:08.509Z,10.77
2024-04-02T09:23:38.938Z,10.75
2024-04-02T09:26:10.694Z,10.68
2024-04-02T09:28:41.235Z,10.61
2024-04-02T09:31:12.980Z,10.61
2024-04-02T09:33:43.821Z,10.66
2024-04-02T09:36:36.974Z,10.67
2024-04-02T09:39:12.894Z,10.62
2024-04-02T09:42:01.035Z,10.56
2024-04-02T09:44:36.741Z,10.54
2024-04-02T09:47:07.758Z,10.65
2024-04-02T09:49:39.524Z,10.81
2024-04-02T09:52:10.145Z,11.03
2024-04-02T09:54:41.801Z,11.22
2024-04-02T09:57:12.566Z,11.37
2024-04-02T09:59:44.402Z,11.49
2024-04-02T10:02:23.393Z,11.61
2024-04-02T10:04:56.540Z,11.74
2024-04-02T10:07:33.666Z,11.86
2024-04-02T10:10:07.075Z,11.99
2024-04-02T10:12:38.458Z,12.03
2024-04-02T10:15:14.006Z,11.93
2024-04-02T10:17:45.756Z,11.81
2024-04-02T10:20:26.791Z,11.86
2024-04-02T10:22:59.407Z,11.97
2024-04-02T10:25:31.713Z,12.01
2024-04-02T10:28:04.784Z,12.16
2024-04-02T10:30:34.944Z,12.24
2024-04-02T10:33:21.276Z,12.29
2024-04-02T10:35:53.142Z,12.31
2024-04-02T10:38:23.980Z,12.34
2024-04-02T10:40:56.960Z,12.24
2024-04-02T10:43:27.387Z,12.06
2024-04-02T10:45:59.045Z,11.83
2024-04-02T10:48:29.570Z,11.67
2024-04-02T10:51:01.126Z,11.58
2024-04-02T10:53:31.668Z,11.61
2024-04-02T10:56:04.626Z,11.83
2024-04-02T10:58:36.471Z,12.18
2024-04-02T11:01:07.950Z,12.59
2024-04-02T11:03:38.991Z,12.99
2024-04-02T11:06:11.536Z,13.33
2024-04-02T11:08:42.301Z,13.65
2024-04-02T11:11:24.197Z,13.96
2024-04-02T11:14:05.668Z,14.27
2024-04-02T11:16:37.643Z,14.56
2024-04-02T11:19:08.063Z,14.82
2024-04-02T11:21:40.356Z,14.96
2024-04-02T11:24:35.960Z,14.98
2024-04-02T11:27:07.739Z,14.94
2024-04-02T11:29:38.240Z,14.84
2024-04-02T11:32:10.103Z,14.75
2024-04-02T11:34:40.639Z,14.54
2024-04-02T11:37:12.407Z,14.28
2024-04-02T11:39:53.911Z,14.12
2024-04-02T11:42:27.065Z,14.16
2024-04-02T11:45:01.591Z,14.38
2024-04-02T11:47:34.944Z,14.51
2024-04-02T11:50:08.445Z,14.54
2024-04-02T11:52:40.134Z,14.48
2024-04-02T11:55:10.710Z,14.34
2024-04-02T11:58:18.391Z,14.19
2024-04-02T12:00:50.231Z,14.05
2024-04-02T12:03:20.648Z,13.97
2024-04-02T12:05:53.019Z,13.78
2024-04-02T12:08:24.663Z,13.48
2024-04-02T12:10:56.944Z,13.11
2024-04-02T12:13:27.376Z,12.76
2024-04-02T12:16:00.068Z,12.55
2024-04-02T12:18:30.684Z,12.50
2024-04-02T12:21:02.253Z,12.61
2024-04-02T12:23:32.876Z,13.11
2024-04-02T12:26:04.826Z,13.84
2024-04-02T12:28:35.329Z,14.64
2024-04-02T12:31:06.930Z,15.20
2024-04-02T12:33:38.974Z,15.15
2024-04-02T12:36:10.423Z,15.00
2024-04-02T12:38:41.164Z,14.88
2024-04-02T12:41:12.713Z,14.84
2024-04-02T12:43:43.263Z,14.72
2024-04-02T12:46:14.790Z,14.78
2024-04-02T12:48:52.132Z,15.09
2024-04-02T12:51:36.513Z,15.73
2024-04-02T12:54:07.269Z,16.28
2024-04-02T12:56:38.821Z,16.71
2024-04-02T12:59:09.361Z,16.86
2024-04-02T13:01:41.328Z,16.53
2024-04-02T13:04:11.543Z,16.00
2024-04-02T13:06:43.398Z,15.44
2024-04-02T13:09:13.750Z,14.86
2024-04-02T13:11:47.570Z,14.28
2024-04-02T13:14:21.225Z,13.74
2024-04-02T13:16:51.962Z,13.40
2024-04-02T13:19:24.199Z,13.27
2024-04-02T13:21:54.864Z,13.27
2024-04-02T13:24:26.901Z,13.39
2024-04-02T13:26:57.353Z,13.86
2024-04-02T13:29:29.006Z,14.89
2024-04-02T13:31:59.439Z,15.77
2024-04-02T13:34:31.192Z,16.31
2024-04-02T13:37:03.058Z,16.74
2024-04-02T13:39:34.908Z,17.47
2024-04-02T13:42:06.056Z,18.33
2024-04-02T13:44:37.818Z,19.06
2024-04-02T13:47:08.793Z,19.95
2024-04-02T13:49:40.401Z,20.93
2024-04-02T13:52:10.932Z,21.99
2024-04-02T13:54:47.192Z,23.00
2024-04-02T13:57:18.872Z,23.83
2024-04-02T13:59:49.699Z,24.43
2024-04-02T14:02:21.450Z,25.12
2024-04-02T14:04:51.770Z,25.83
2024-04-02T14:07:25.007Z,25.30
2024-04-02T14:09:55.297Z,23.78
2024-04-02T14:12:26.960Z,22.25
2024-04-02T14:14:57.377Z,20.93
2024-04-02T14:17:29.246Z,19.92
2024-04-02T14:20:01.608Z,19.12
2024-04-02T14:22:33.466Z,18.87
2024-04-02T14:25:04.731Z,18.93
2024-04-02T14:27:36.365Z,19.46
2024-04-02T14:30:07.820Z,21.13
2024-04-02T14:32:39.368Z,22.10
2024-04-02T14:35:10.112Z,23.10
2024-04-02T14:37:41.979Z,24.41
2024-04-02T14:40:12.847Z,25.48
2024-04-02T14:42:44.763Z,25.65
2024-04-02T14:45:15.590Z,25.43
2024-04-02T14:47:47.663Z,25.22
2024-04-02T14:50:18.185Z,24.49
2024-04-02T14:52:50.050Z,25.03
2024-04-02T14:55:22.181Z,25.58
2024-04-02T14:57:55.186Z,25.68
2024-04-02T15:00:25.578Z,25.83
2024-04-02T15:02:59.089Z,26.27
2024-04-02T15:05:29.786Z,26.51
2024-04-02T15:08:01.509Z,26.23
2024-04-02T15:10:31.916Z,25.12
2024-04-02T15:13:04.204Z,24.31
2024-04-02T15:15:35.627Z,23.51
2024-04-02T15:18:08.608Z,22.89
2024-04-02T15:20:39.174Z,22.66
2024-04-02T15:23:11.043Z,22.35
2024-04-02T15:25:41.466Z,21.74
2024-04-02T15:28:13.116Z,20.89
2024-04-02T15:30:43.548Z,20.07
2024-04-02T15:33:15.525Z,19.36
2024-04-02T15:35:49.739Z,18.71
2024-04-02T15:38:22.320Z,18.18
2024-04-02T15:40:57.472Z,17.87
2024-04-02T15:43:29.806Z,17.65
2024-04-02T15:46:01.652Z,17.45
2024-04-02T15:48:33.323Z,17.25
2024-04-02T15:51:04.037Z,17.00
2024-04-02T15:53:35.833Z,16.70
2024-04-02T15:56:08.199Z,16.39
2024-04-02T15:58:39.943Z,16.11
2024-04-02T16:01:11.492Z,15.88
2024-04-02T16:03:43.253Z,15.62
2024-04-02T16:06:15.317Z,15.45
2024-04-02T16:08:49.912Z,15.39
2024-04-02T16:11:22.825Z,15.36
2024-04-02T16:13:53.243Z,15.32
2024-04-02T16:16:24.903Z,15.26
2024-04-02T16:18:57.784Z,15.24
2024-04-02T16:21:29.685Z,15.23
2024-04-02T16:23:59.963Z,15.22
2024-04-02T16:26:32.036Z,15.19
2024-04-02T16:29:02.256Z,15.12
2024-04-02T16:31:34.324Z,15.00
2024-04-02T16:34:04.542Z,14.85
2024-04-02T16:36:36.428Z,14.68
2024-04-02T16:39:06.723Z,14.51
2024-04-02T16:41:38.683Z,14.37
2024-04-02T16:44:09.021Z,14.26
2024-04-02T16:46:40.779Z,14.16
2024-04-02T16:49:11.318Z,14.07
2024-04-02T16:51:44.119Z,13.99
2024-04-02T16:54:14.515Z,13.92
2024-04-02T16:56:47.156Z,13.85
2024-04-02T16:59:17.410Z,13.80
2024-04-02T17:01:49.892Z,13.71
2024-04-02T17:04:23.175Z,13.58
2024-04-02T17:06:54.924Z,13.46
2024-04-02T17:09:25.768Z,13.36
2024-04-02T17:11:57.591Z,13.28
2024-04-02T17:14:27.948Z,13.21
2024-04-02T17:16:59.914Z,13.15
2024-04-02T17:19:30.443Z,13.08
2024-04-02T17:22:02.306Z,13.01
2024-04-02T17:24:33.349Z,12.95
2024-04-02T17:27:05.342Z,12.89
2024-04-02T17:29:35.830Z,12.82
2024-04-02T17:32:08.008Z,12.75
2024-04-02T17:34:41.496Z,12.69
2024-04-02T17:37:13.974Z,12.63
2024-04-02T17:39:44.726Z,12.57
2024-04-02T17:42:16.668Z,12.53
2024-04-02T17:44:47.412Z,12.49
2024-04-02T17:47:19.263Z,12.46
2024-04-02T17:49:49.685Z,12.42
2024-04-02T17:52:21.343Z,12.38
2024-04-02T17:54:51.969Z,12.34
2024-04-02T17:57:23.859Z,12.31
2024-04-02T17:59:54.361Z,12.27
2024-04-02T18:02:26.052Z,12.21
2024-04-02T18:04:59.313Z,12.15
2024-04-02T18:07:30.872Z,12.08
2024-04-02T18:10:01.611Z,12.01
2024-04-02T18:12:34.999Z,11.93
2024-04-02T18:15:08.702Z,11.85
2024-04-02T18:17:42.412Z,11.78
2024-04-02T18:20:12.727Z,11.74
2024-04-02T18:22:44.848Z,11.69
2024-04-02T18:25:17.792Z,11.64
2024-04-02T18:27:49.940Z,11.60
2024-04-02T18:30:20.581Z,11.55
2024-04-02T18:32:52.841Z,11.51
2024-04-02T18:35:23.366Z,11.46
2024-04-02T18:37:54.931Z,11.40
2024-04-02T18:40:34.500Z,11.36
2024-04-02T18:43:08.274Z,11.33
2024-04-02T18:45:38.590Z,11.30
2024-04-02T18:48:10.981Z,11.28
2024-04-02T18:50:41.713Z,11.27
2024-04-02T18:53:13.463Z,11.25
2024-04-02T18:55:43.994Z,11.21
2024-04-02T18:58:15.755Z,11.17
2024-04-02T19:00:45.987Z,11.11
2024-04-02T19:03:17.831Z,11.07
2024-04-02T19:05:48.370Z,11.01
2024-04-02T19:08:20.492Z,10.97
2024-04-02T19:10:50.743Z,10.92
2024-04-02T19:13:25.575Z,10.88
2024-04-02T19:16:16.895Z,10.84
2024-04-02T19:18:48.745Z,10.81
2024-04-02T19:21:19.181Z,10.77
2024-04-02T19:23:51.242Z,10.75
2024-04-02T19:26:21.772Z,10.71
2024-04-02T19:28:53.325Z,10.68
2024-04-02T19:31:24.365Z,10.64
2024-04-02T19:33:56.737Z,10.59
2024-04-02T19:36:27.278Z,10.56
2024-04-02T19:38:59.138Z,10.52
2024-04-02T19:41:30.264Z,10.48
2024-04-02T19:44:01.928Z,10.44
2024-04-02T19:46:32.447Z,10.39
2024-04-02T19:49:04.477Z,10.33
2024-04-02T19:51:34.940Z,10.27
2024-04-02T19:54:06.717Z,10.22
2024-04-02T19:56:37.247Z,10.18
2024-04-02T19:59:09.007Z,10.17
2024-04-02T20:01:39.739Z,10.16
2024-04-02T20:04:11.470Z,10.14
2024-04-02T20:06:42.012Z,10.11
2024-04-02T20:09:14.605Z,10.08
2024-04-02T20:11:45.419Z,10.06
2024-04-02T20:14:18.875Z,10.03
2024-04-02T20:16:49.454Z,10.01
2024-04-02T20:19:21.204Z,9.99
2024-04-02T20:21:51.729Z,9.96
2024-04-02T20:24:23.484Z,9.93
2024-04-02T20:26:53.884Z,9.90
2024-04-02T20:29:25.981Z,9.87
2024-04-02T20:31:56.824Z,9.84
2024-04-02T20:34:28.577Z,9.80
2024-04-02T20:36:58.897Z,9.74
2024-04-02T20:39:30.449Z,9.68
2024-04-02T20:42:01.186Z,9.61
2024-04-02T20:44:36.834Z,9.54
2024-04-02T20:47:08.896Z,9.48
2024-04-02T20:49:39.951Z,9.45
2024-04-02T20:52:11.502Z,9.41
2024-04-02T20:54:42.223Z,9.37
2024-04-02T20:57:13.872Z,9.30
2024-04-02T20:59:44.576Z,9.26
2024-04-02T21:02:16.058Z,9.21
2024-04-02T21:04:49.569Z,9.16
2024-04-02T21:07:21.419Z,9.11
2024-04-02T21:09:52.047Z,9.06
2024-04-02T21:12:23.705Z,9.02
2024-04-02T21:14:54.336Z,8.98
2024-04-02T21:17:26.409Z,8.95
2024-04-02T21:19:56.935Z,8.94
2024-04-02T21:59:56.172Z,8.82
2024-04-02T22:02:26.809Z,8.80
2024-04-02T22:04:58.355Z,8.78
2024-04-02T22:07:28.983Z,8.78
2024-04-02T22:10:00.656Z,8.79
2024-04-02T22:12:30.964Z,8.79
2024-04-02T22:15:03.646Z,8.80
2024-04-02T22:17:33.984Z,8.80
2024-04-02T22:20:06.422Z,8.79
2024-04-02T22:22:37.636Z,8.73
2024-04-02T22:25:09.154Z,8.67
2024-04-02T22:27:39.904Z,8.60
2024-04-02T22:30:12.038Z,8.53
2024-04-02T22:32:42.677Z,8.49
2024-04-02T22:35:14.431Z,8.46
2024-04-02T22:37:44.848Z,8.46
2024-04-02T22:40:17.022Z,8.49
2024-04-02T22:42:47.552Z,8.52
2024-04-02T22:45:20.102Z,8.56
2024-04-02T22:47:50.560Z,8.60
2024-04-02T22:50:22.214Z,8.62
2024-04-02T22:52:52.847Z,8.63
2024-04-02T22:55:24.574Z,8.65
2024-04-02T22:57:55.037Z,8.67
2024-04-02T23:00:27.468Z,8.69
2024-04-02T23:02:58.281Z,8.69
2024-04-02T23:05:31.014Z,8.69
2024-04-02T23:08:01.650Z,8.70
2024-04-02T23:10:33.414Z,8.72
2024-04-02T23:13:04.238Z,8.74
2024-04-02T23:15:36.000Z,8.76
2024-04-02T23:18:06.435Z,8.78
2024-04-02T23:20:38.291Z,8.78
2024-04-02T23:23:08.718Z,8.78
2024-04-02T23:25:40.473Z,8.77
2024-04-02T23:28:11.118Z,8.77
2024-04-02T23:30:43.288Z,8.78
2024-04-02T23:33:13.913Z,8.80
2024-04-02T23:35:45.786Z,8.82
2024-04-02T23:38:16.795Z,8.85
2024-04-02T23:40:55.352Z,8.89
2024-04-02T23:43:26.886Z,8.91
2024-04-02T23:45:57.614Z,8.93
2024-04-02T23:48:29.360Z,8.93
2024-04-02T23:50:59.982Z,8.92
2024-04-02T23:53:31.755Z,8.92
2024-04-02T23:56:02.378Z,8.93
2024-04-02T23:58:34.243Z,8.92
